| time (UTC) | temp C | wind direction | speed KPH | gust KPH | rain 1hr cm | rain 24hr cm | rain mn cm | humidity % | barometer mb |
| 20260509123014 | 17 | 204 | 0.0 | 0.0 | 0.00 | 0.00 | 0.00 | 91 | 1014.1 |
| 20260509121513 | 17 | 204 | 0.0 | 3.2 | 0.00 | 0.00 | 0.00 | 92 | 1014.3 |
| 20260509120021 | 16 | 234 | 0.0 | 0.0 | 0.00 | 0.00 | 0.00 | 93 | 1014.1 |
| 20260509114512 | 16 | 115 | 0.0 | 0.0 | 0.00 | 0.00 | 0.00 | 95 | 1014.0 |
| 20260509113008 | 15 | 138 | 0.0 | 0.0 | 0.00 | 0.00 | 0.00 | 95 | 1013.8 |
| 20260509111514 | 15 | 138 | 0.0 | 0.0 | 0.00 | 0.00 | 0.00 | 95 | 1013.8 |
| 20260509110017 | -17 | 0.0 | 0.0 | 0.00 | 0.00 | 0.00 | 1013.5 | ||
| 20260509104515 | -17 | 0.0 | 0.0 | 0.00 | 0.00 | 0.00 | 1013.2 | ||
| 20260509103016 | -17 | 0.0 | 0.0 | 0.00 | 0.00 | 0.00 | 1013.1 | ||
| 20260509101528 | -17 | 0.0 | 0.0 | 0.00 | 0.00 | 0.00 | 1012.9 | ||
| 20260509100021 | -17 | 0.0 | 0.0 | 0.00 | 0.00 | 0.00 | 1013.0 | ||
| 20260509094525 | -17 | 0.0 | 0.0 | 0.00 | 0.00 | 0.00 | 1012.9 | ||
| 20260509093015 | -17 | 0.0 | 0.0 | 0.00 | 0.00 | 0.00 | 1013.2 | ||
| 20260509091518 | 15 | 0.0 | 0.0 | 0.00 | 0.00 | 0.00 | 94 | 1013.3 | |
| 20260509090010 | 15 | 138 | 0.0 | 0.0 | 0.00 | 0.00 | 0.00 | 94 | 1013.3 |
| 20260509084515 | 15 | 138 | 0.0 | 0.0 | 0.00 | 0.00 | 0.00 | 94 | 1013.2 |
| 20260509083019 | 15 | 138 | 0.0 | 0.0 | 0.00 | 0.00 | 0.00 | 93 | 1013.2 |
| 20260509081525 | 15 | 138 | 0.0 | 0.0 | 0.00 | 0.00 | 0.00 | 93 | 1013.0 |
| 20260509080022 | 15 | 38 | 0.0 | 0.0 | 0.00 | 0.00 | 0.00 | 93 | 1013.7 |
| 20260509074514 | 15 | 38 | 0.0 | 0.0 | 0.00 | 0.00 | 0.00 | 93 | 1013.8 |
| 20260509073034 | 15 | 38 | 0.0 | 0.0 | 0.00 | 0.00 | 0.00 | 92 | 1013.7 |
| 20260509071527 | 15 | 38 | 0.0 | 0.0 | 0.00 | 0.00 | 0.00 | 92 | 1013.3 |
| 20260509070038 | 15 | 38 | 0.0 | 0.0 | 0.00 | 0.00 | 0.00 | 91 | 1013.7 |
| 20260509064524 | 16 | 38 | 0.0 | 3.2 | 0.00 | 0.00 | 0.00 | 91 | 1013.6 |
| 20260509063022 | 16 | 103 | 0.0 | 3.2 | 0.00 | 0.00 | 0.00 | 91 | 1014.1 |
| 20260509061523 | 16 | 103 | 0.0 | 3.2 | 0.00 | 0.00 | 0.00 | 90 | 1014.1 |
| 20260509060031 | 16 | 256 | 0.0 | 3.2 | 0.00 | 0.00 | 0.00 | 90 | 1015.2 |
| 20260509054523 | 16 | 22 | 3.2 | 4.8 | 0.00 | 0.00 | 0.00 | 90 | 1014.5 |
| 20260509053020 | 16 | 142 | 0.0 | 3.2 | 0.00 | 0.00 | 0.00 | 90 | 1014.4 |
| 20260509051519 | 16 | 119 | 0.0 | 0.0 | 0.00 | 0.00 | 0.00 | 89 | 1014.5 |
| 20260509050007 | 16 | 119 | 0.0 | 0.0 | 0.00 | 0.00 | 0.00 | 90 | 1015.2 |
| 20260509044509 | 16 | 119 | 0.0 | 0.0 | 0.00 | 0.00 | 0.00 | 89 | 1015.3 |
| 20260509043012 | 16 | 176 | 0.0 | 0.0 | 0.00 | 0.00 | 0.00 | 89 | 1015.6 |
| 20260509041517 | 16 | 211 | 0.0 | 0.0 | 0.00 | 0.00 | 0.00 | 89 | 1015.9 |
| 20260509040022 | 16 | 93 | 0.0 | 0.0 | 0.00 | 0.00 | 0.00 | 88 | 1015.6 |
| 20260509034505 | 16 | 93 | 0.0 | 0.0 | 0.00 | 0.00 | 0.00 | 88 | 1015.8 |
| 20260509033008 | 16 | 93 | 0.0 | 0.0 | 0.00 | 0.00 | 0.00 | 87 | 1016.2 |
| 20260509031516 | 16 | 93 | 0.0 | 0.0 | 0.00 | 0.00 | 0.00 | 87 | 1016.3 |
| 20260509030022 | 16 | 93 | 0.0 | 3.2 | 0.00 | 0.00 | 0.00 | 87 | 1016.2 |
| 20260509024521 | 16 | 159 | 0.0 | 0.0 | 0.00 | 0.00 | 0.00 | 86 | 1016.4 |
| 20260509023008 | 17 | 60 | 0.0 | 0.0 | 0.00 | 0.00 | 0.00 | 85 | 1016.2 |
| 20260509021516 | 17 | 60 | 0.0 | 0.0 | 0.00 | 0.00 | 0.00 | 85 | 1016.3 |
| 20260509020032 | 17 | 60 | 0.0 | 0.0 | 0.00 | 0.00 | 0.00 | 84 | 1016.2 |
| 20260509014541 | 17 | 117 | 0.0 | 0.0 | 0.00 | 0.00 | 0.00 | 83 | 1015.9 |
| 20260509013035 | 17 | 117 | 0.0 | 0.0 | 0.00 | 0.00 | 0.00 | 82 | 1015.9 |
| 20260509011511 | 17 | 117 | 0.0 | 0.0 | 0.00 | 0.00 | 0.00 | 79 | 1016.0 |
| 20260509010014 | 17 | 117 | 0.0 | 0.0 | 0.00 | 0.00 | 0.00 | 79 | 1015.7 |
| 20260509004520 | 17 | 84 | 0.0 | 0.0 | 0.00 | 0.00 | 0.00 | 78 | 1015.7 |
| 20260509003031 | 18 | 84 | 0.0 | 0.0 | 0.00 | 0.00 | 0.00 | 77 | 1015.5 |
| 20260509001523 | 18 | 84 | 0.0 | 3.2 | 0.00 | 0.00 | 0.00 | 76 | 1015.5 |
| 20260509000012 | 18 | 137 | 1.6 | 6.4 | 0.00 | 0.00 | 0.00 | 74 | 1015.3 |
| 20260508234516 | 18 | 178 | 1.6 | 3.2 | 0.00 | 0.00 | 0.00 | 73 | 1015.2 |
| 20260508233022 | 18 | 150 | 3.2 | 8.0 | 0.00 | 0.00 | 0.00 | 72 | 1015.0 |
| 20260508231528 | 18 | 123 | 1.6 | 4.8 | 0.00 | 0.00 | 0.00 | 72 | 1015.0 |
| 20260508230017 | 19 | 169 | 1.6 | 4.8 | 0.00 | 0.00 | 0.00 | 70 | 1015.1 |
| 20260508224513 | 19 | 123 | 3.2 | 12.9 | 0.00 | 0.00 | 0.00 | 68 | 1015.3 |
| 20260508223023 | 20 | 169 | 4.8 | 16.1 | 0.00 | 0.00 | 0.00 | 67 | 1015.0 |
| 20260508221524 | 20 | 154 | 3.2 | 12.9 | 0.00 | 0.00 | 0.00 | 66 | 1014.9 |
| 20260508220008 | 20 | 198 | 6.4 | 17.7 | 0.00 | 0.00 | 0.00 | 65 | 1015.0 |
| 20260508214516 | 20 | 180 | 4.8 | 16.1 | 0.00 | 0.00 | 0.00 | 65 | 1015.0 |
| 20260508213016 | 21 | 176 | 9.7 | 16.1 | 0.00 | 0.00 | 0.00 | 64 | 1014.9 |
| 20260508211523 | 21 | 175 | 8.0 | 19.3 | 0.00 | 0.00 | 0.00 | 62 | 1014.9 |
| 20260508210008 | 23 | 155 | 6.4 | 8.0 | 0.00 | 0.00 | 0.00 | 51 | 1014.7 |
| 20260508204512 | 23 | 211 | 1.6 | 6.4 | 0.00 | 0.00 | 0.00 | 49 | 1014.8 |
| 20260508203016 | 23 | 85 | 4.8 | 8.0 | 0.00 | 0.00 | 0.00 | 49 | 1014.6 |
| 20260508201522 | 23 | 44 | 3.2 | 9.7 | 0.00 | 0.28 | 0.00 | 50 | 1014.7 |
| 20260508200025 | 23 | 128 | 3.2 | 12.9 | 0.00 | 0.69 | 0.00 | 50 | 1014.9 |
| 20260508194510 | 23 | 52 | 4.8 | 17.7 | 0.00 | 0.97 | 0.00 | 52 | 1015.2 |
| 20260508193016 | 22 | 26 | 3.2 | 8.0 | 0.00 | 1.07 | 0.00 | 52 | 1015.6 |
| 20260508191525 | 22 | 98 | 4.8 | 9.7 | 0.00 | 1.07 | 0.00 | 49 | 1015.5 |
| 20260508190032 | 23 | 109 | 4.8 | 8.0 | 0.00 | 1.14 | 0.00 | 49 | 1015.6 |
| 20260508184528 | 22 | 40 | 8.0 | 11.3 | 0.00 | 1.47 | 0.00 | 51 | 1015.9 |
| 20260508183011 | 22 | 77 | 3.2 | 14.5 | 0.00 | 1.47 | 0.00 | 49 | 1016.0 |
| 20260508181524 | 22 | 78 | 3.2 | 9.7 | 0.00 | 1.47 | 0.00 | 50 | 1016.2 |
| 20260508180022 | 22 | 344 | 4.8 | 12.9 | 0.00 | 1.47 | 0.00 | 49 | 1016.4 |
| 20260508174524 | 21 | 60 | 1.6 | 12.9 | 0.00 | 1.47 | 0.00 | 51 | 1016.6 |
| 20260508173025 | 22 | 23 | 6.4 | 17.7 | 0.00 | 1.47 | 0.00 | 50 | 1016.7 |
| 20260508171523 | 21 | 96 | 1.6 | 8.0 | 0.00 | 1.47 | 0.00 | 49 | 1016.7 |
| 20260508170018 | 21 | 38 | 4.8 | 19.3 | 0.00 | 1.47 | 0.00 | 50 | 1017.2 |
| 20260508164526 | 21 | 352 | 6.4 | 22.5 | 0.00 | 1.47 | 0.00 | 54 | 1017.1 |
| 20260508163027 | 20 | 34 | 6.4 | 16.1 | 0.00 | 1.47 | 0.00 | 53 | 1017.4 |
| 20260508161526 | 20 | 73 | 3.2 | 19.3 | 0.00 | 1.47 | 0.00 | 56 | 1017.5 |
| 20260508160016 | 20 | 10 | 9.7 | 19.3 | 0.00 | 1.47 | 0.00 | 55 | 1017.9 |
| 20260508154523 | 20 | 32 | 8.0 | 17.7 | 0.00 | 1.47 | 0.00 | 57 | 1018.2 |
| 20260508153026 | 20 | 65 | 3.2 | 17.7 | 0.00 | 1.47 | 0.00 | 56 | 1018.2 |
| 20260508151530 | 19 | 74 | 9.7 | 29.0 | 0.00 | 1.47 | 0.00 | 58 | 1018.2 |
| 20260508150032 | 19 | 65 | 6.4 | 17.7 | 0.00 | 1.47 | 0.00 | 62 | 1018.1 |
| 20260508144520 | 18 | 38 | 9.7 | 22.5 | 0.00 | 1.47 | 0.00 | 61 | 1018.1 |
| 20260508143027 | 18 | 88 | 12.9 | 24.1 | 0.00 | 1.47 | 0.00 | 62 | 1018.0 |
| 20260508141545 | 18 | 57 | 9.7 | 20.9 | 0.00 | 1.47 | 0.00 | 64 | 1017.9 |
| 20260508140012 | 17 | 51 | 9.7 | 16.1 | 0.00 | 1.47 | 0.00 | 70 | 1017.9 |
| 20260508134519 | 17 | 83 | 8.0 | 20.9 | 0.00 | 1.47 | 0.00 | 74 | 1017.8 |
| 20260508133020 | 16 | 90 | 6.4 | 22.5 | 0.00 | 1.47 | 0.00 | 79 | 1017.6 |
| 20260508131508 | 16 | 71 | 9.7 | 17.7 | 0.00 | 1.47 | 0.00 | 82 | 1017.4 |
| 20260508130011 | 16 | 49 | 6.4 | 14.5 | 0.00 | 1.47 | 0.00 | 85 | 1017.3 |
| 20260508124513 | 15 | 81 | 6.4 | 11.3 | 0.00 | 1.47 | 0.00 | 89 | 1017.2 |